KFHRKORS

Guest
Details From KFHR - FRIDAY HARBOR
To KORS - Orcas Island
Flight Number -
Tags generated
Created
Modified
Stats Distance 12 nm / 22 km
Max Altitude 0 ft / 0 m
Waypoints 2
Social Downloads 1
Likes 0
Share VATSIM

Download

Looking for another format? Having issues loading an existing format? Contact us
Advertisement - Login to hide

Notes

Basic altitude profile: - Ascent Rate: 2500ft/min - Ascent Speed: 250kts - Cruise Altitude: 100000ft - Cruise Speed: 420kts - Descent Rate: 1500ft/min - Descent Speed: 250kts Options: - Use NATs: yes - Use PACOTS: yes - Use low airways: yes - Use high airways: yes

Route

KFHR KORS

ID Type Via Altitude Latitude Longitude Leg Dist Tot Dist Heading (true) Name
O KFHR APT - 0 ft / 0 m 48.52197˚ -123.02437˚ - 0 nm - FRIDAY HARBOR
O KORS APT - 0 ft / 0 m 48.70832˚ -122.91061˚ 12 nm 12 nm 22° / 22° Orcas Island

Altitude Profile

Advertisement - Login to hide

KFHR

Details ICAO KFHR (FRD)
Name FRIDAY HARBOR
Region United States
Timezone America/Los_Angeles (UTC-8.0)
Stats Elevation 113 ft / 34 m (AMSL)
Location 48.521966° -123.024368°
Runways 1
Magnetic Variation 16.073° E

METAR

KFHR 121753Z AUTO 00000KT 10SM CLR 07/03 A3050 RMK AO2 SLP329 T00670028 10067 20044 51008 $

Decode

TAF

Not found

Departure Runways

ID Width Length Bearing (true) Bearing (mag) Surface Threshold Offset Overrun Length
16 75 ft / 23 m 3,402 ft / 1,037 m 177.06° 160.99° Asphalt 0 ft / 0 m 0 ft / 0 m
34 75 ft / 23 m 3,402 ft / 1,037 m 357.06° 340.99° Asphalt 0 ft / 0 m 0 ft / 0 m

KORS

Details ICAO KORS (ESD)
Name Orcas Island
Region United States
Timezone America/Los_Angeles (UTC-8.0)
Stats Elevation 25 ft / 8 m (AMSL)
Location 48.708318° -122.910606°
Runways 1
Magnetic Variation 16.099° E

METAR

KORS 121815Z AUTO 00000KT 10SM FEW050 FEW065 07/05 A3050 RMK AO2

Decode

TAF

Not found

Destination Runways

ID Width Length Bearing (true) Bearing (mag) Surface Threshold Offset Overrun Length
16 59 ft / 18 m 2,895 ft / 882 m 180.23° 164.13° Asphalt 0 ft / 0 m 240 ft / 73 m
34 59 ft / 18 m 2,895 ft / 882 m 0.23° 344.13° Asphalt 0 ft / 0 m 259 ft / 79 m

Popular Alternatives